sensor_id;sensor_type;location;lat;lon;timestamp;pressure;altitude;pressure_sealevel;temperature;humidity
8543;BME280;4309;42.658;23.380;2023-02-13T00:00:17;96479.53;;;0.19;89.75
8543;BME280;4309;42.658;23.380;2023-02-13T00:00:49;96479.31;;;0.22;89.75
8543;BME280;4309;42.658;23.380;2023-02-13T00:01:22;96478.28;;;0.25;89.82
8543;BME280;4309;42.658;23.380;2023-02-13T00:01:55;96480.84;;;0.25;90.00
8543;BME280;4309;42.658;23.380;2023-02-13T00:02:27;96477.09;;;0.18;90.05
8543;BME280;4309;42.658;23.380;2023-02-13T00:02:59;96479.88;;;0.15;90.55
8543;BME280;4309;42.658;23.380;2023-02-13T00:03:32;96487.50;;;0.16;90.20
8543;BME280;4309;42.658;23.380;2023-02-13T00:04:06;96478.47;;;0.11;90.79
8543;BME280;4309;42.658;23.380;2023-02-13T00:04:38;96477.19;;;0.16;90.01
8543;BME280;4309;42.658;23.380;2023-02-13T00:05:11;96485.13;;;0.13;90.39
8543;BME280;4309;42.658;23.380;2023-02-13T00:05:43;96485.13;;;0.13;90.79
8543;BME280;4309;42.658;23.380;2023-02-13T00:06:16;96481.84;;;0.11;90.48
8543;BME280;4309;42.658;23.380;2023-02-13T00:06:46;96480.00;;;0.13;91.06
8543;BME280;4309;42.658;23.380;2023-02-13T00:07:17;96489.25;;;0.16;90.13
8543;BME280;4309;42.658;23.380;2023-02-13T00:07:50;96489.13;;;0.06;91.17
8543;BME280;4309;42.658;23.380;2023-02-13T00:08:23;96487.69;;;0.02;90.48
8543;BME280;4309;42.658;23.380;2023-02-13T00:08:55;96490.81;;;-0.06;91.35
8543;BME280;4309;42.658;23.380;2023-02-13T00:09:30;96492.44;;;-0.05;91.45
8543;BME280;4309;42.658;23.380;2023-02-13T00:10:03;96483.25;;;0.04;90.83
8543;BME280;4309;42.658;23.380;2023-02-13T00:10:34;96485.47;;;0.09;91.90
8543;BME280;4309;42.658;23.380;2023-02-13T00:11:07;96484.00;;;0.17;90.60
8543;BME280;4309;42.658;23.380;2023-02-13T00:11:40;96476.19;;;0.19;90.69
8543;BME280;4309;42.658;23.380;2023-02-13T00:12:12;96486.84;;;0.25;90.73
8543;BME280;4309;42.658;23.380;2023-02-13T00:12:44;96478.88;;;0.28;90.09
8543;BME280;4309;42.658;23.380;2023-02-13T00:13:16;96479.13;;;0.25;90.12
8543;BME280;4309;42.658;23.380;2023-02-13T00:13:46;96483.06;;;0.18;89.54
8543;BME280;4309;42.658;23.380;2023-02-13T00:14:17;96482.94;;;0.20;90.33
8543;BME280;4309;42.658;23.380;2023-02-13T00:14:50;96488.69;;;0.23;90.43
8543;BME280;4309;42.658;23.380;2023-02-13T00:15:22;96484.34;;;0.24;89.73
8543;BME280;4309;42.658;23.380;2023-02-13T00:15:59;96484.47;;;0.22;90.08
8543;BME280;4309;42.658;23.380;2023-02-13T00:16:33;96482.13;;;0.19;89.69
8543;BME280;4309;42.658;23.380;2023-02-13T00:17:05;96489.16;;;0.17;90.47
8543;BME280;4309;42.658;23.380;2023-02-13T00:17:37;96492.50;;;0.18;89.93
8543;BME280;4309;42.658;23.380;2023-02-13T00:18:10;96491.00;;;0.15;89.59
8543;BME280;4309;42.658;23.380;2023-02-13T00:18:42;96484.81;;;0.18;90.05
8543;BME280;4309;42.658;23.380;2023-02-13T00:19:15;96487.25;;;0.19;89.88
8543;BME280;4309;42.658;23.380;2023-02-13T00:19:48;96483.50;;;0.12;89.90
8543;BME280;4309;42.658;23.380;2023-02-13T00:20:21;96487.13;;;0.10;90.86
8543;BME280;4309;42.658;23.380;2023-02-13T00:20:59;96488.19;;;0.18;90.56
8543;BME280;4309;42.658;23.380;2023-02-13T00:21:32;96490.66;;;0.20;90.19
8543;BME280;4309;42.658;23.380;2023-02-13T00:22:04;96487.13;;;0.10;90.56
8543;BME280;4309;42.658;23.380;2023-02-13T00:22:37;96495.88;;;0.07;90.02
8543;BME280;4309;42.658;23.380;2023-02-13T00:23:11;96495.66;;;0.10;90.08
8543;BME280;4309;42.658;23.380;2023-02-13T00:24:27;96496.44;;;-0.01;90.94
8543;BME280;4309;42.658;23.380;2023-02-13T00:25:00;96494.91;;;-0.03;90.79
8543;BME280;4309;42.658;23.380;2023-02-13T00:25:31;96495.63;;;-0.01;90.53
8543;BME280;4309;42.658;23.380;2023-02-13T00:26:06;96489.66;;;-0.02;90.51
8543;BME280;4309;42.658;23.380;2023-02-13T00:26:40;96493.03;;;-0.01;90.65
8543;BME280;4309;42.658;23.380;2023-02-13T00:27:12;96483.59;;;-0.01;90.42
8543;BME280;4309;42.658;23.380;2023-02-13T00:27:44;96491.56;;;0.08;90.46
8543;BME280;4309;42.658;23.380;2023-02-13T00:28:16;96494.13;;;0.08;90.20
8543;BME280;4309;42.658;23.380;2023-02-13T00:28:48;96494.81;;;0.10;90.65
8543;BME280;4309;42.658;23.380;2023-02-13T00:29:20;96492.81;;;0.02;91.09
8543;BME280;4309;42.658;23.380;2023-02-13T00:29:52;96502.59;;;-0.03;90.27
8543;BME280;4309;42.658;23.380;2023-02-13T00:30:23;96494.53;;;0.14;90.96
8543;BME280;4309;42.658;23.380;2023-02-13T00:31:02;96495.81;;;0.20;90.12
8543;BME280;4309;42.658;23.380;2023-02-13T00:31:35;96499.22;;;0.20;90.24
8543;BME280;4309;42.658;23.380;2023-02-13T00:32:06;96494.88;;;0.21;89.66
8543;BME280;4309;42.658;23.380;2023-02-13T00:32:38;96490.31;;;0.24;90.64
8543;BME280;4309;42.658;23.380;2023-02-13T00:33:11;96493.25;;;0.31;89.42
8543;BME280;4309;42.658;23.380;2023-02-13T00:33:43;96487.28;;;0.30;89.72
8543;BME280;4309;42.658;23.380;2023-02-13T00:34:15;96494.66;;;0.35;89.88
8543;BME280;4309;42.658;23.380;2023-02-13T00:34:48;96490.69;;;0.31;89.02
8543;BME280;4309;42.658;23.380;2023-02-13T00:35:20;96492.78;;;0.26;88.77
8543;BME280;4309;42.658;23.380;2023-02-13T00:36:01;96485.50;;;0.20;89.13
8543;BME280;4309;42.658;23.380;2023-02-13T00:36:34;96500.22;;;0.18;89.47
8543;BME280;4309;42.658;23.380;2023-02-13T00:37:06;96500.13;;;0.19;90.14
8543;BME280;4309;42.658;23.380;2023-02-13T00:37:38;96491.50;;;0.20;89.75
8543;BME280;4309;42.658;23.380;2023-02-13T00:38:11;96493.00;;;0.23;89.57
8543;BME280;4309;42.658;23.380;2023-02-13T00:38:44;96502.47;;;0.22;89.57
8543;BME280;4309;42.658;23.380;2023-02-13T00:39:16;96498.81;;;0.14;90.67
8543;BME280;4309;42.658;23.380;2023-02-13T00:39:50;96501.91;;;0.19;89.75
8543;BME280;4309;42.658;23.380;2023-02-13T00:40:21;96492.19;;;0.22;90.05
8543;BME280;4309;42.658;23.380;2023-02-13T00:40:52;96493.94;;;0.22;90.38
8543;BME280;4309;42.658;23.380;2023-02-13T00:41:27;96498.16;;;0.23;90.56
8543;BME280;4309;42.658;23.380;2023-02-13T00:41:59;96490.53;;;0.21;90.74
8543;BME280;4309;42.658;23.380;2023-02-13T00:42:31;96487.16;;;0.21;90.95
8543;BME280;4309;42.658;23.380;2023-02-13T00:43:04;96487.97;;;0.21;90.29
8543;BME280;4309;42.658;23.380;2023-02-13T00:43:37;96491.47;;;0.09;90.30
8543;BME280;4309;42.658;23.380;2023-02-13T00:44:09;96492.59;;;0.05;90.34
8543;BME280;4309;42.658;23.380;2023-02-13T00:44:52;96491.41;;;-0.02;90.97
8543;BME280;4309;42.658;23.380;2023-02-13T00:45:24;96495.13;;;-0.06;91.18
8543;BME280;4309;42.658;23.380;2023-02-13T00:45:56;96489.97;;;-0.06;91.78
8543;BME280;4309;42.658;23.380;2023-02-13T00:46:32;96490.97;;;0.04;91.52
8543;BME280;4309;42.658;23.380;2023-02-13T00:47:04;96500.69;;;0.12;92.43
8543;BME280;4309;42.658;23.380;2023-02-13T00:47:37;96499.97;;;0.10;91.88
8543;BME280;4309;42.658;23.380;2023-02-13T00:48:08;96500.78;;;0.10;91.42
8543;BME280;4309;42.658;23.380;2023-02-13T00:48:40;96493.31;;;0.07;92.07
8543;BME280;4309;42.658;23.380;2023-02-13T00:49:12;96501.75;;;0.09;92.14
8543;BME280;4309;42.658;23.380;2023-02-13T00:49:45;96498.22;;;0.10;91.62
8543;BME280;4309;42.658;23.380;2023-02-13T00:50:17;96494.81;;;0.10;91.88
8543;BME280;4309;42.658;23.380;2023-02-13T00:50:49;96489.16;;;0.17;91.50
8543;BME280;4309;42.658;23.380;2023-02-13T00:51:22;96496.63;;;0.20;91.25
8543;BME280;4309;42.658;23.380;2023-02-13T00:51:54;96505.88;;;0.23;91.21
8543;BME280;4309;42.658;23.380;2023-02-13T00:53:23;96505.72;;;0.13;91.26
8543;BME280;4309;42.658;23.380;2023-02-13T00:53:56;96498.03;;;0.24;91.25
8543;BME280;4309;42.658;23.380;2023-02-13T00:54:29;96499.88;;;0.22;91.73
8543;BME280;4309;42.658;23.380;2023-02-13T00:55:00;96497.13;;;0.25;91.24
8543;BME280;4309;42.658;23.380;2023-02-13T00:55:34;96504.13;;;0.23;90.52
8543;BME280;4309;42.658;23.380;2023-02-13T00:56:06;96505.97;;;0.21;90.72
8543;BME280;4309;42.658;23.380;2023-02-13T00:56:37;96507.94;;;0.18;91.03
8543;BME280;4309;42.658;23.380;2023-02-13T00:57:09;96506.31;;;0.17;91.09
8543;BME280;4309;42.658;23.380;2023-02-13T00:57:41;96506.44;;;0.15;90.82
8543;BME280;4309;42.658;23.380;2023-02-13T00:58:13;96504.69;;;0.16;90.89
8543;BME280;4309;42.658;23.380;2023-02-13T00:58:44;96506.81;;;0.22;90.79
8543;BME280;4309;42.658;23.380;2023-02-13T00:59:17;96501.19;;;0.17;91.59
8543;BME280;4309;42.658;23.380;2023-02-13T00:59:49;96502.34;;;0.24;91.40
8543;BME280;4309;42.658;23.380;2023-02-13T01:00:20;96504.31;;;0.09;91.33
8543;BME280;4309;42.658;23.380;2023-02-13T01:00:56;96507.09;;;0.06;91.00
8543;BME280;4309;42.658;23.380;2023-02-13T01:01:28;96503.94;;;0.03;91.67
8543;BME280;4309;42.658;23.380;2023-02-13T01:01:59;96510.81;;;0.02;91.02
8543;BME280;4309;42.658;23.380;2023-02-13T01:02:33;96506.16;;;0.07;91.32
8543;BME280;4309;42.658;23.380;2023-02-13T01:03:07;96511.75;;;0.01;91.71
8543;BME280;4309;42.658;23.380;2023-02-13T01:03:39;96509.56;;;0.08;91.55
8543;BME280;4309;42.658;23.380;2023-02-13T01:04:12;96505.22;;;0.08;91.19
8543;BME280;4309;42.658;23.380;2023-02-13T01:04:44;96502.75;;;0.07;91.29
8543;BME280;4309;42.658;23.380;2023-02-13T01:05:16;96505.81;;;0.12;91.27
8543;BME280;4309;42.658;23.380;2023-02-13T01:05:48;96509.59;;;0.19;91.72
8543;BME280;4309;42.658;23.380;2023-02-13T01:06:23;96504.72;;;0.27;90.92
8543;BME280;4309;42.658;23.380;2023-02-13T01:06:55;96510.31;;;0.32;91.20
8543;BME280;4309;42.658;23.380;2023-02-13T01:07:27;96509.75;;;0.28;90.20
8543;BME280;4309;42.658;23.380;2023-02-13T01:08:00;96502.13;;;0.16;90.72
8543;BME280;4309;42.658;23.380;2023-02-13T01:08:33;96501.91;;;0.19;91.03
8543;BME280;4309;42.658;23.380;2023-02-13T01:09:06;96504.09;;;0.12;90.30
8543;BME280;4309;42.658;23.380;2023-02-13T01:09:39;96503.16;;;0.13;90.70
8543;BME280;4309;42.658;23.380;2023-02-13T01:10:13;96506.81;;;0.22;90.82
8543;BME280;4309;42.658;23.380;2023-02-13T01:10:46;96503.19;;;0.24;90.16
8543;BME280;4309;42.658;23.380;2023-02-13T01:11:18;96500.72;;;0.23;90.78
8543;BME280;4309;42.658;23.380;2023-02-13T01:11:53;96503.19;;;0.24;90.40
8543;BME280;4309;42.658;23.380;2023-02-13T01:12:26;96507.97;;;0.29;90.22
8543;BME280;4309;42.658;23.380;2023-02-13T01:12:58;96509.63;;;0.30;90.29
8543;BME280;4309;42.658;23.380;2023-02-13T01:13:30;96507.88;;;0.30;90.53
8543;BME280;4309;42.658;23.380;2023-02-13T01:14:04;96507.88;;;0.30;90.98
8543;BME280;4309;42.658;23.380;2023-02-13T01:14:36;96509.03;;;0.26;90.04
8543;BME280;4309;42.658;23.380;2023-02-13T01:15:09;96503.78;;;0.28;90.22
8543;BME280;4309;42.658;23.380;2023-02-13T01:15:41;96511.75;;;0.36;90.15
8543;BME280;4309;42.658;23.380;2023-02-13T01:16:13;96493.50;;;0.28;90.38
8543;BME280;4309;42.658;23.380;2023-02-13T01:16:48;96500.97;;;0.31;90.57
8543;BME280;4309;42.658;23.380;2023-02-13T01:17:19;96496.22;;;0.37;90.45
8543;BME280;4309;42.658;23.380;2023-02-13T01:17:52;96491.53;;;0.31;89.51
8543;BME280;4309;42.658;23.380;2023-02-13T01:18:25;96496.56;;;0.33;89.66
8543;BME280;4309;42.658;23.380;2023-02-13T01:18:56;96500.88;;;0.32;89.47
8543;BME280;4309;42.658;23.380;2023-02-13T01:19:30;96497.22;;;0.35;89.31
8543;BME280;4309;42.658;23.380;2023-02-13T01:20:03;96498.63;;;0.28;89.84
8543;BME280;4309;42.658;23.380;2023-02-13T01:20:35;96502.38;;;0.35;89.53
8543;BME280;4309;42.658;23.380;2023-02-13T01:21:15;96498.03;;;0.24;89.59
8543;BME280;4309;42.658;23.380;2023-02-13T01:21:48;96508.22;;;0.26;89.41
8543;BME280;4309;42.658;23.380;2023-02-13T01:22:19;96504.38;;;0.31;89.66
8543;BME280;4309;42.658;23.380;2023-02-13T01:22:50;96503.66;;;0.29;89.57
8543;BME280;4309;42.658;23.380;2023-02-13T01:23:23;96503.22;;;0.35;89.96
8543;BME280;4309;42.658;23.380;2023-02-13T01:23:56;96506.50;;;0.37;90.28
8543;BME280;4309;42.658;23.380;2023-02-13T01:24:30;96504.19;;;0.45;90.07
8543;BME280;4309;42.658;23.380;2023-02-13T01:25:05;96510.84;;;0.48;89.46
8543;BME280;4309;42.658;23.380;2023-02-13T01:25:39;96506.97;;;0.42;89.59
8543;BME280;4309;42.658;23.380;2023-02-13T01:26:16;96505.44;;;0.40;89.88
8543;BME280;4309;42.658;23.380;2023-02-13T01:26:49;96502.28;;;0.36;89.24
8543;BME280;4309;42.658;23.380;2023-02-13T01:27:21;96510.00;;;0.36;89.72
8543;BME280;4309;42.658;23.380;2023-02-13T01:27:53;96506.50;;;0.37;89.49
8543;BME280;4309;42.658;23.380;2023-02-13T01:28:25;96506.97;;;0.42;89.98
8543;BME280;4309;42.658;23.380;2023-02-13T01:28:58;96507.66;;;0.44;89.30
8543;BME280;4309;42.658;23.380;2023-02-13T01:29:30;96507.75;;;0.32;90.03
8543;BME280;4309;42.658;23.380;2023-02-13T01:30:04;96508.09;;;0.27;89.97
8543;BME280;4309;42.658;23.380;2023-02-13T01:30:37;96512.06;;;0.20;90.54
8543;BME280;4309;42.658;23.380;2023-02-13T01:31:09;96516.50;;;0.18;90.01
8543;BME280;4309;42.658;23.380;2023-02-13T01:31:42;96516.50;;;0.18;90.53
8543;BME280;4309;42.658;23.380;2023-02-13T01:32:14;96511.56;;;0.15;90.35
8543;BME280;4309;42.658;23.380;2023-02-13T01:32:47;96515.66;;;0.18;90.82
8543;BME280;4309;42.658;23.380;2023-02-13T01:33:19;96517.09;;;0.22;91.45
8543;BME280;4309;42.658;23.380;2023-02-13T01:33:50;96499.88;;;0.22;90.74
8543;BME280;4309;42.658;23.380;2023-02-13T01:34:24;96511.50;;;0.28;91.45
8543;BME280;4309;42.658;23.380;2023-02-13T01:34:55;96514.66;;;0.31;91.05
8543;BME280;4309;42.658;23.380;2023-02-13T01:35:28;96515.47;;;0.32;91.37
8543;BME280;4309;42.658;23.380;2023-02-13T01:36:05;96510.44;;;0.30;90.59
8543;BME280;4309;42.658;23.380;2023-02-13T01:36:37;96513.00;;;0.30;90.97
8543;BME280;4309;42.658;23.380;2023-02-13T01:37:09;96514.78;;;0.30;91.02
8543;BME280;4309;42.658;23.380;2023-02-13T01:37:41;96512.31;;;0.28;90.86
8543;BME280;4309;42.658;23.380;2023-02-13T01:38:13;96507.41;;;0.25;90.74
8543;BME280;4309;42.658;23.380;2023-02-13T01:38:45;96505.75;;;0.24;90.95
8543;BME280;4309;42.658;23.380;2023-02-13T01:39:19;96509.88;;;0.27;90.86
8543;BME280;4309;42.658;23.380;2023-02-13T01:39:50;96514.09;;;0.39;90.81
8543;BME280;4309;42.658;23.380;2023-02-13T01:40:25;96512.16;;;0.53;90.56
8543;BME280;4309;42.658;23.380;2023-02-13T01:41:00;96515.66;;;0.63;89.86
8543;BME280;4309;42.658;23.380;2023-02-13T01:41:32;96510.25;;;0.55;89.02
8543;BME280;4309;42.658;23.380;2023-02-13T01:42:08;96515.63;;;0.52;89.18
8543;BME280;4309;42.658;23.380;2023-02-13T01:42:45;96522.88;;;0.47;89.01
8543;BME280;4309;42.658;23.380;2023-02-13T01:43:18;96514.72;;;0.53;89.89
8543;BME280;4309;42.658;23.380;2023-02-13T01:43:52;96512.03;;;0.55;89.11
8543;BME280;4309;42.658;23.380;2023-02-13T01:44:45;96515.88;;;0.49;89.18
8543;BME280;4309;42.658;23.380;2023-02-13T01:45:25;96511.44;;;0.51;90.11
8543;BME280;4309;42.658;23.380;2023-02-13T01:45:58;96517.97;;;0.55;90.34
8543;BME280;4309;42.658;23.380;2023-02-13T01:46:36;96512.19;;;0.64;89.68
8543;BME280;4309;42.658;23.380;2023-02-13T01:47:10;96516.38;;;0.65;89.89
8543;BME280;4309;42.658;23.380;2023-02-13T01:47:45;96514.50;;;0.56;89.69
8543;BME280;4309;42.658;23.380;2023-02-13T01:48:23;96518.22;;;0.52;89.14
8543;BME280;4309;42.658;23.380;2023-02-13T01:48:59;96518.94;;;0.54;90.24
8543;BME280;4309;42.658;23.380;2023-02-13T01:49:33;96517.84;;;0.46;90.05
8543;BME280;4309;42.658;23.380;2023-02-13T01:50:09;96515.16;;;0.36;90.02
8543;BME280;4309;42.658;23.380;2023-02-13T01:50:44;96517.28;;;0.42;89.78
8543;BME280;4309;42.658;23.380;2023-02-13T01:51:24;96524.19;;;0.53;90.71
8543;BME280;4309;42.658;23.380;2023-02-13T01:51:58;96525.13;;;0.52;90.03
8543;BME280;4309;42.658;23.380;2023-02-13T01:52:30;96510.13;;;0.46;90.58
8543;BME280;4309;42.658;23.380;2023-02-13T01:53:05;96521.00;;;0.49;90.38
8543;BME280;4309;42.658;23.380;2023-02-13T01:53:42;96520.66;;;0.54;89.55
8543;BME280;4309;42.658;23.380;2023-02-13T01:54:20;96520.13;;;0.61;89.86
8543;BME280;4309;42.658;23.380;2023-02-13T01:54:53;96517.75;;;0.58;90.20
8543;BME280;4309;42.658;23.380;2023-02-13T01:55:26;96522.44;;;0.53;89.06
8543;BME280;4309;42.658;23.380;2023-02-13T01:56:07;96524.66;;;0.47;89.38
8543;BME280;4309;42.658;23.380;2023-02-13T01:56:44;96519.88;;;0.53;89.36
8543;BME280;4309;42.658;23.380;2023-02-13T01:57:20;96521.63;;;0.53;89.44
8543;BME280;4309;42.658;23.380;2023-02-13T01:57:58;96524.53;;;0.48;89.73
8543;BME280;4309;42.658;23.380;2023-02-13T01:58:34;96523.47;;;0.51;89.52
8543;BME280;4309;42.658;23.380;2023-02-13T01:59:10;96522.69;;;0.50;89.63
8543;BME280;4309;42.658;23.380;2023-02-13T01:59:51;96520.09;;;0.50;90.08
8543;BME280;4309;42.658;23.380;2023-02-13T02:00:24;96524.31;;;0.51;89.45
8543;BME280;4309;42.658;23.380;2023-02-13T02:00:57;96521.84;;;0.50;89.89
8543;BME280;4309;42.658;23.380;2023-02-13T02:01:31;96520.56;;;0.55;89.88
8543;BME280;4309;42.658;23.380;2023-02-13T02:02:03;96523.13;;;0.55;90.37
8543;BME280;4309;42.658;23.380;2023-02-13T02:02:38;96521.97;;;0.59;89.63
8543;BME280;4309;42.658;23.380;2023-02-13T02:03:18;96517.88;;;0.57;89.39
8543;BME280;4309;42.658;23.380;2023-02-13T02:03:54;96520.09;;;0.50;89.81
8543;BME280;4309;42.658;23.380;2023-02-13T02:04:31;96518.31;;;0.51;89.25
8543;BME280;4309;42.658;23.380;2023-02-13T02:05:05;96519.72;;;0.44;89.72
8543;BME280;4309;42.658;23.380;2023-02-13T02:05:39;96517.97;;;0.44;90.58
8543;BME280;4309;42.658;23.380;2023-02-13T02:06:16;96525.56;;;0.46;89.77
8543;BME280;4309;42.658;23.380;2023-02-13T02:06:55;96517.41;;;0.52;90.71
8543;BME280;4309;42.658;23.380;2023-02-13T02:07:29;96515.75;;;0.51;90.64
8543;BME280;4309;42.658;23.380;2023-02-13T02:08:06;96520.22;;;0.49;89.85
8543;BME280;4309;42.658;23.380;2023-02-13T02:08:38;96515.06;;;0.49;90.46
8543;BME280;4309;42.658;23.380;2023-02-13T02:09:14;96521.63;;;0.53;89.69
8543;BME280;4309;42.658;23.380;2023-02-13T02:09:51;96516.78;;;0.37;89.93
8543;BME280;4309;42.658;23.380;2023-02-13T02:10:24;96519.38;;;0.48;90.39
8543;BME280;4309;42.658;23.380;2023-02-13T02:11:01;96520.41;;;0.46;89.98
8543;BME280;4309;42.658;23.380;2023-02-13T02:11:45;96525.81;;;0.54;90.72
8543;BME280;4309;42.658;23.380;2023-02-13T02:12:23;96510.16;;;0.68;89.43
8543;BME280;4309;42.658;23.380;2023-02-13T02:13:02;96513.81;;;0.76;89.74
8543;BME280;4309;42.658;23.380;2023-02-13T02:13:36;96515.53;;;0.65;89.22
8543;BME280;4309;42.658;23.380;2023-02-13T02:14:09;96512.84;;;0.66;89.42
8543;BME280;4309;42.658;23.380;2023-02-13T02:14:42;96519.28;;;0.61;89.03
8543;BME280;4309;42.658;23.380;2023-02-13T02:15:13;96508.63;;;0.54;88.75
8543;BME280;4309;42.658;23.380;2023-02-13T02:15:46;96511.81;;;0.58;88.58
8543;BME280;4309;42.658;23.380;2023-02-13T02:16:19;96511.56;;;0.61;89.60
8543;BME280;4309;42.658;23.380;2023-02-13T02:16:53;96521.63;;;0.64;88.88
8543;BME280;4309;42.658;23.380;2023-02-13T02:17:26;96509.38;;;0.67;89.12
8543;BME280;4309;42.658;23.380;2023-02-13T02:17:57;96508.78;;;0.64;88.42
8543;BME280;4309;42.658;23.380;2023-02-13T02:18:30;96516.00;;;0.59;89.31
8543;BME280;4309;42.658;23.380;2023-02-13T02:19:04;96515.28;;;0.57;89.40
8543;BME280;4309;42.658;23.380;2023-02-13T02:19:47;96515.63;;;0.52;88.78
8543;BME280;4309;42.658;23.380;2023-02-13T02:20:28;96511.78;;;0.47;89.21
8543;BME280;4309;42.658;23.380;2023-02-13T02:22:42;96506.91;;;0.55;89.26
8543;BME280;4309;42.658;23.380;2023-02-13T02:24:52;96503.75;;;0.62;89.09
8543;BME280;4309;42.658;23.380;2023-02-13T02:26:59;96512.41;;;0.61;88.50
8543;BME280;4309;42.658;23.380;2023-02-13T02:28:16;96520.22;;;0.60;88.97
8543;BME280;4309;42.658;23.380;2023-02-13T02:29:23;96514.47;;;0.45;89.03
8543;BME280;4309;42.658;23.380;2023-02-13T02:33:33;96511.78;;;0.47;90.37
8543;BME280;4309;42.658;23.380;2023-02-13T02:34:17;96508.16;;;0.49;90.10
8543;BME280;4309;42.658;23.380;2023-02-13T02:35:01;96509.31;;;0.45;89.88
8543;BME280;4309;42.658;23.380;2023-02-13T02:35:44;96518.44;;;0.49;89.57
8543;BME280;4309;42.658;23.380;2023-02-13T02:36:28;96513.75;;;0.43;90.04
8543;BME280;4309;42.658;23.380;2023-02-13T02:37:16;96521.03;;;0.60;90.46
8543;BME280;4309;42.658;23.380;2023-02-13T02:38:04;96523.47;;;0.51;90.06
8543;BME280;4309;42.658;23.380;2023-02-13T02:38:49;96517.72;;;0.47;90.00
8543;BME280;4309;42.658;23.380;2023-02-13T02:39:31;96524.66;;;0.47;90.09
8543;BME280;4309;42.658;23.380;2023-02-13T02:40:15;96523.59;;;0.49;89.66
8543;BME280;4309;42.658;23.380;2023-02-13T02:40:57;96520.22;;;0.49;89.54
8543;BME280;4309;42.658;23.380;2023-02-13T02:41:41;96531.06;;;0.52;90.74
8543;BME280;4309;42.658;23.380;2023-02-13T02:42:22;96526.28;;;0.48;90.36
8543;BME280;4309;42.658;23.380;2023-02-13T02:43:10;96528.84;;;0.48;90.76
8543;BME280;4309;42.658;23.380;2023-02-13T02:43:53;96532.13;;;0.50;90.25
8543;BME280;4309;42.658;23.380;2023-02-13T02:44:31;96529.81;;;0.58;89.47
8543;BME280;4309;42.658;23.380;2023-02-13T02:45:09;96532.28;;;0.59;90.23
8543;BME280;4309;42.658;23.380;2023-02-13T02:45:48;96529.59;;;0.61;89.32
8543;BME280;4309;42.658;23.380;2023-02-13T02:46:27;96535.09;;;0.67;89.47
8543;BME280;4309;42.658;23.380;2023-02-13T02:47:17;96534.50;;;0.64;88.62
8543;BME280;4309;42.658;23.380;2023-02-13T02:48:13;96530.06;;;0.55;88.79
8543;BME280;4309;42.658;23.380;2023-02-13T02:49:12;96526.59;;;0.32;89.67
8543;BME280;4309;42.658;23.380;2023-02-13T02:50:13;96546.28;;;0.21;89.82
8543;BME280;4309;42.658;23.380;2023-02-13T02:50:51;96540.41;;;0.31;90.23
8543;BME280;4309;42.658;23.380;2023-02-13T02:51:29;96537.25;;;0.39;89.93
8543;BME280;4309;42.658;23.380;2023-02-13T02:52:07;96537.38;;;0.37;90.69
8543;BME280;4309;42.658;23.380;2023-02-13T02:52:56;96547.06;;;0.34;90.83
8543;BME280;4309;42.658;23.380;2023-02-13T02:53:36;96537.00;;;0.31;90.21
8543;BME280;4309;42.658;23.380;2023-02-13T02:54:16;96547.19;;;0.43;90.10
8543;BME280;4309;42.658;23.380;2023-02-13T02:55:17;96534.06;;;0.35;89.83
8543;BME280;4309;42.658;23.380;2023-02-13T02:55:57;96542.50;;;0.37;90.66
8543;BME280;4309;42.658;23.380;2023-02-13T02:56:38;96549.75;;;0.32;90.61
8543;BME280;4309;42.658;23.380;2023-02-13T02:57:16;96545.09;;;0.37;90.89
8543;BME280;4309;42.658;23.380;2023-02-13T02:57:55;96543.47;;;0.47;90.28
8543;BME280;4309;42.658;23.380;2023-02-13T02:58:52;96541.94;;;0.45;89.71
8543;BME280;4309;42.658;23.380;2023-02-13T02:59:45;96549.84;;;0.31;90.40
8543;BME280;4309;42.658;23.380;2023-02-13T03:00:40;96555.59;;;0.34;90.19
8543;BME280;4309;42.658;23.380;2023-02-13T03:01:33;96546.03;;;0.36;90.96
8543;BME280;4309;42.658;23.380;2023-02-13T03:02:25;96548.56;;;0.25;90.24
8543;BME280;4309;42.658;23.380;2023-02-13T03:03:19;96549.25;;;0.27;90.38
8543;BME280;4309;42.658;23.380;2023-02-13T03:04:18;96542.63;;;0.36;90.83
8543;BME280;4309;42.658;23.380;2023-02-13T03:05:16;96548.16;;;0.42;90.50
8543;BME280;4309;42.658;23.380;2023-02-13T03:06:14;96541.56;;;0.38;90.20
8543;BME280;4309;42.658;23.380;2023-02-13T03:06:50;96540.78;;;0.38;90.42
8543;BME280;4309;42.658;23.380;2023-02-13T03:07:24;96542.16;;;0.42;90.05
8543;BME280;4309;42.658;23.380;2023-02-13T03:07:57;96538.19;;;0.38;90.84
8543;BME280;4309;42.658;23.380;2023-02-13T03:08:29;96542.06;;;0.43;90.84
8543;BME280;4309;42.658;23.380;2023-02-13T03:09:19;96538.16;;;0.27;90.57
8543;BME280;4309;42.658;23.380;2023-02-13T03:10:14;96542.25;;;0.29;90.93
8543;BME280;4309;42.658;23.380;2023-02-13T03:11:07;96541.06;;;0.33;90.38
8543;BME280;4309;42.658;23.380;2023-02-13T03:11:59;96545.75;;;0.28;90.90
8543;BME280;4309;42.658;23.380;2023-02-13T03:12:54;96536.03;;;0.32;90.65
8543;BME280;4309;42.658;23.380;2023-02-13T03:13:52;96539.06;;;0.26;91.58
8543;BME280;4309;42.658;23.380;2023-02-13T03:14:26;96535.25;;;0.31;91.14
8543;BME280;4309;42.658;23.380;2023-02-13T03:14:58;96538.31;;;0.36;90.96
8543;BME280;4309;42.658;23.380;2023-02-13T03:15:30;96532.38;;;0.47;90.45
8543;BME280;4309;42.658;23.380;2023-02-13T03:16:04;96536.44;;;0.49;91.01
8543;BME280;4309;42.658;23.380;2023-02-13T03:16:57;96537.75;;;0.44;90.63
8543;BME280;4309;42.658;23.380;2023-02-13T03:17:47;96537.13;;;0.40;90.36
8543;BME280;4309;42.658;23.380;2023-02-13T03:18:40;96544.13;;;0.38;89.75
8543;BME280;4309;42.658;23.380;2023-02-13T03:19:43;96541.19;;;0.32;90.94
8543;BME280;4309;42.658;23.380;2023-02-13T03:20:42;96540.16;;;0.34;90.55
8543;BME280;4309;42.658;23.380;2023-02-13T03:21:43;96542.88;;;0.44;90.25
8543;BME280;4309;42.658;23.380;2023-02-13T03:22:41;96534.56;;;0.40;90.19
8543;BME280;4309;42.658;23.380;2023-02-13T03:23:21;96546.16;;;0.46;91.06
8543;BME280;4309;42.658;23.380;2023-02-13T03:24:01;96540.44;;;0.42;89.91
8543;BME280;4309;42.658;23.380;2023-02-13T03:24:43;96543.56;;;0.46;89.78
8543;BME280;4309;42.658;23.380;2023-02-13T03:25:20;96536.34;;;0.51;90.09
8543;BME280;4309;42.658;23.380;2023-02-13T03:26:31;96541.72;;;0.48;90.75
8543;BME280;4309;42.658;23.380;2023-02-13T03:27:22;96545.50;;;0.55;89.78
8543;BME280;4309;42.658;23.380;2023-02-13T03:28:23;96549.09;;;0.52;89.68
8543;BME280;4309;42.658;23.380;2023-02-13T03:29:27;96548.97;;;0.54;89.97
8543;BME280;4309;42.658;23.380;2023-02-13T03:30:31;96545.13;;;0.48;89.23
8543;BME280;4309;42.658;23.380;2023-02-13T03:31:14;96546.75;;;0.49;89.45